createdAt,value
2017-05-28T00:00:32.659Z,16.04
2017-05-28T00:01:32.683Z,16.07
2017-05-28T00:02:32.724Z,15.93
2017-05-28T00:03:32.755Z,15.98
2017-05-28T00:04:32.811Z,15.99
2017-05-28T00:05:32.834Z,15.99
2017-05-28T00:06:32.869Z,16
2017-05-28T00:07:32.902Z,15.98
2017-05-28T00:08:32.929Z,15.98
2017-05-28T00:09:32.975Z,15.96
2017-05-28T00:10:32.997Z,16
2017-05-28T00:11:33.055Z,16
2017-05-28T00:12:33.074Z,15.96
2017-05-28T00:13:33.117Z,15.98
2017-05-28T00:14:33.143Z,15.93
2017-05-28T00:15:33.176Z,15.89
2017-05-28T00:16:33.221Z,15.88
2017-05-28T00:17:33.254Z,15.83
2017-05-28T00:18:33.285Z,15.84
2017-05-28T00:19:33.323Z,15.83
2017-05-28T00:20:33.354Z,15.8
2017-05-28T00:21:33.382Z,15.81
2017-05-28T00:22:33.418Z,15.8
2017-05-28T00:23:33.460Z,15.78
2017-05-28T00:24:33.500Z,15.73
2017-05-28T00:25:33.554Z,15.77
2017-05-28T00:26:33.563Z,15.7
2017-05-28T00:27:33.603Z,15.68
2017-05-28T00:28:33.700Z,15.7
2017-05-28T00:29:33.674Z,15.56
2017-05-28T00:30:33.705Z,15.56
2017-05-28T00:31:33.738Z,15.52
2017-05-28T00:32:33.775Z,15.49
2017-05-28T00:33:33.810Z,15.49
2017-05-28T00:34:33.832Z,15.44
2017-05-28T00:35:33.882Z,15.31
2017-05-28T00:36:33.919Z,15.31
2017-05-28T00:37:33.954Z,15.25
2017-05-28T00:38:33.992Z,15.26
2017-05-28T00:39:34.074Z,15.23
2017-05-28T00:40:34.058Z,15.16
2017-05-28T00:41:34.097Z,15.08
2017-05-28T00:42:34.133Z,15.16
2017-05-28T00:43:34.173Z,15.19
2017-05-28T00:44:34.216Z,15.16
2017-05-28T00:45:34.237Z,15.15
2017-05-28T00:46:34.267Z,15.18
2017-05-28T00:47:34.305Z,15.23
2017-05-28T00:48:34.350Z,15.2
2017-05-28T00:49:34.384Z,15.1
2017-05-28T00:50:34.401Z,15.12
2017-05-28T00:51:34.443Z,15.08
2017-05-28T00:52:34.474Z,15.1
2017-05-28T00:53:34.521Z,15.02
2017-05-28T00:54:34.567Z,15
2017-05-28T00:55:34.601Z,14.95
2017-05-28T00:56:34.620Z,14.97
2017-05-28T00:57:34.659Z,14.93
2017-05-28T00:58:34.760Z,14.93
2017-05-28T00:59:34.727Z,14.9
2017-05-28T01:00:34.765Z,14.93
2017-05-28T01:01:34.802Z,14.94
2017-05-28T01:02:34.871Z,14.83
2017-05-28T01:03:34.868Z,14.79
2017-05-28T01:04:34.911Z,14.79
2017-05-28T01:05:34.938Z,14.85
2017-05-28T01:06:34.973Z,14.83
2017-05-28T01:07:35.011Z,14.85
2017-05-28T01:08:35.053Z,14.8
2017-05-28T01:09:35.101Z,14.66
2017-05-28T01:10:35.115Z,14.74
2017-05-28T01:11:35.142Z,14.75
2017-05-28T01:12:35.193Z,14.79
2017-05-28T01:13:35.270Z,14.67
2017-05-28T01:14:35.265Z,14.57
2017-05-28T01:15:35.301Z,14.56
2017-05-28T01:16:35.313Z,14.45
2017-05-28T01:17:35.360Z,14.48
2017-05-28T01:18:35.400Z,14.51
2017-05-28T01:19:35.438Z,14.45
2017-05-28T01:20:35.466Z,14.34
2017-05-28T01:21:35.500Z,14.41
2017-05-28T01:22:35.539Z,14.39
2017-05-28T01:23:35.580Z,14.38
2017-05-28T01:24:35.602Z,14.39
2017-05-28T01:25:35.646Z,14.34
2017-05-28T01:26:35.696Z,14.24
2017-05-28T01:27:35.714Z,14.21
2017-05-28T01:28:35.734Z,14.21
2017-05-28T01:29:35.775Z,14.21
2017-05-28T01:30:35.818Z,14.16
2017-05-28T01:31:35.847Z,14.16
2017-05-28T01:32:35.880Z,14.15
2017-05-28T01:33:35.922Z,14.09
2017-05-28T01:34:35.947Z,14.15
2017-05-28T01:35:35.981Z,14.08
2017-05-28T01:36:36.015Z,14.12
2017-05-28T01:37:36.060Z,14.09
2017-05-28T01:38:36.086Z,14.13
2017-05-28T01:39:36.119Z,14.16
2017-05-28T01:40:36.170Z,14.15
2017-05-28T01:41:36.193Z,14.2
2017-05-28T01:42:36.231Z,14.19
2017-05-28T01:43:36.291Z,14.23
2017-05-28T01:44:36.336Z,14.15
2017-05-28T01:45:36.323Z,14.03
2017-05-28T01:46:36.370Z,14.06
2017-05-28T01:47:36.415Z,14.05
2017-05-28T01:48:36.437Z,14.02
2017-05-28T01:49:36.475Z,14.08
2017-05-28T01:50:36.493Z,14.02
2017-05-28T01:51:36.547Z,14.01
2017-05-28T01:52:36.582Z,14.02
2017-05-28T01:53:36.622Z,13.97
2017-05-28T01:54:36.639Z,14.12
2017-05-28T01:55:36.899Z,14.03
2017-05-28T01:56:36.710Z,14.02
2017-05-28T01:57:36.748Z,13.95
2017-05-28T01:58:36.778Z,14.03
2017-05-28T01:59:36.815Z,13.93
2017-05-28T02:00:36.845Z,13.95
2017-05-28T02:01:36.955Z,13.93
2017-05-28T02:02:36.947Z,13.94
2017-05-28T02:03:36.957Z,13.87
2017-05-28T02:04:36.972Z,13.93
2017-05-28T02:05:37.028Z,13.87
2017-05-28T02:06:37.052Z,13.83
2017-05-28T02:07:37.087Z,13.84
2017-05-28T02:08:37.331Z,13.88
2017-05-28T02:09:37.162Z,13.9
2017-05-28T02:10:37.205Z,13.93
2017-05-28T02:11:37.473Z,13.95
2017-05-28T02:12:37.266Z,13.88
2017-05-28T02:13:37.525Z,14.01
2017-05-28T02:14:37.344Z,13.99
2017-05-28T02:15:37.369Z,14.09
2017-05-28T02:16:37.397Z,14.06
2017-05-28T02:17:37.445Z,14.06
2017-05-28T02:18:37.475Z,13.94
2017-05-28T02:19:37.505Z,13.91
2017-05-28T02:20:37.540Z,13.93
2017-05-28T02:21:37.576Z,13.9
2017-05-28T02:22:37.591Z,13.93
2017-05-28T02:23:37.646Z,14.02
2017-05-28T02:24:37.676Z,14.01
2017-05-28T02:25:37.714Z,13.97
2017-05-28T02:26:37.745Z,13.9
2017-05-28T02:27:37.785Z,13.93
2017-05-28T02:28:37.820Z,13.93
2017-05-28T02:29:37.854Z,13.9
2017-05-28T02:30:37.887Z,13.88
2017-05-28T02:31:37.971Z,13.91
2017-05-28T02:32:37.943Z,13.9
2017-05-28T02:33:37.984Z,13.9
2017-05-28T02:34:38.015Z,13.94
2017-05-28T02:35:38.255Z,13.93
2017-05-28T02:36:38.088Z,13.94
2017-05-28T02:37:38.125Z,13.88
2017-05-28T02:38:38.352Z,13.9
2017-05-28T02:39:38.196Z,13.91
2017-05-28T02:40:38.444Z,13.84
2017-05-28T02:41:39.078Z,13.81
2017-05-28T02:42:38.299Z,13.83
2017-05-28T02:43:38.344Z,13.83
2017-05-28T02:44:38.616Z,13.81
2017-05-28T02:45:38.409Z,13.87
2017-05-28T02:46:38.431Z,13.91
2017-05-28T02:47:38.476Z,13.93
2017-05-28T02:48:38.488Z,13.9
2017-05-28T02:49:38.530Z,13.86
2017-05-28T02:50:38.837Z,13.81
2017-05-28T02:51:38.606Z,13.87
2017-05-28T02:52:38.853Z,13.75
2017-05-28T02:53:38.679Z,13.78
2017-05-28T02:54:38.703Z,13.72
2017-05-28T02:55:38.737Z,13.58
2017-05-28T02:56:38.825Z,13.63
2017-05-28T02:57:38.813Z,13.62
2017-05-28T02:58:38.856Z,13.6
2017-05-28T02:59:38.872Z,13.6
2017-05-28T03:00:38.892Z,13.63
2017-05-28T03:01:38.939Z,13.63
2017-05-28T03:02:38.982Z,13.66
2017-05-28T03:03:39.012Z,13.58
2017-05-28T03:04:39.050Z,13.6
2017-05-28T03:05:39.084Z,13.6
2017-05-28T03:06:39.100Z,13.65
2017-05-28T03:07:39.144Z,13.65
2017-05-28T03:08:39.181Z,13.53
2017-05-28T03:09:39.217Z,13.5
2017-05-28T03:10:39.246Z,13.45
2017-05-28T03:11:39.288Z,13.51
2017-05-28T03:12:39.317Z,13.54
2017-05-28T03:13:39.351Z,13.44
2017-05-28T03:14:39.395Z,13.47
2017-05-28T03:15:39.657Z,13.5
2017-05-28T03:16:39.457Z,13.53
2017-05-28T03:17:39.485Z,13.5
2017-05-28T03:18:39.527Z,13.47
2017-05-28T03:19:39.544Z,13.54
2017-05-28T03:20:39.592Z,13.65
2017-05-28T03:21:39.626Z,13.57
2017-05-28T03:22:39.645Z,13.6
2017-05-28T03:23:39.696Z,13.53
2017-05-28T03:24:39.725Z,13.51
2017-05-28T03:25:39.759Z,13.5
2017-05-28T03:26:39.805Z,13.58
2017-05-28T03:27:39.832Z,13.65
2017-05-28T03:28:39.861Z,13.63
2017-05-28T03:29:39.961Z,13.62
2017-05-28T03:30:39.931Z,13.6
2017-05-28T03:31:39.962Z,13.55
2017-05-28T03:32:39.994Z,13.66
2017-05-28T03:33:40.030Z,13.65
2017-05-28T03:34:40.057Z,13.68
2017-05-28T03:35:40.103Z,13.62
2017-05-28T03:36:40.130Z,13.62
2017-05-28T03:37:40.164Z,13.66
2017-05-28T03:38:40.206Z,13.68
2017-05-28T03:39:40.237Z,13.62
2017-05-28T03:40:40.266Z,13.65
2017-05-28T03:41:40.305Z,13.68
2017-05-28T03:42:40.332Z,13.65
2017-05-28T03:43:40.376Z,13.6
2017-05-28T03:44:40.404Z,13.63
2017-05-28T03:45:40.441Z,13.66
2017-05-28T03:46:40.466Z,13.69
2017-05-28T03:47:40.505Z,13.58
2017-05-28T03:48:40.548Z,13.6
2017-05-28T03:49:40.566Z,13.65
2017-05-28T03:50:40.594Z,13.68
2017-05-28T03:51:40.641Z,13.7
2017-05-28T03:52:40.673Z,13.7
2017-05-28T03:53:40.699Z,13.69
2017-05-28T03:54:40.752Z,13.86
2017-05-28T03:55:40.781Z,13.87
2017-05-28T03:56:40.814Z,13.76
2017-05-28T03:57:40.832Z,13.83
2017-05-28T03:58:40.867Z,13.9
2017-05-28T03:59:40.918Z,13.88
2017-05-28T04:00:40.994Z,13.94
2017-05-28T04:01:41.121Z,14.06
2017-05-28T04:02:41.060Z,14.08
2017-05-28T04:03:41.095Z,14.06
2017-05-28T04:04:41.132Z,14.12
2017-05-28T04:05:41.168Z,14.13
2017-05-28T04:06:41.293Z,14.15
2017-05-28T04:07:41.232Z,14.16
2017-05-28T04:08:41.247Z,14.23
2017-05-28T04:09:41.281Z,14.2
2017-05-28T04:10:41.343Z,14.26
2017-05-28T04:11:41.469Z,14.34
2017-05-28T04:12:41.400Z,14.31
2017-05-28T04:13:41.434Z,14.44
2017-05-28T04:14:41.469Z,14.66
2017-05-28T04:15:41.493Z,14.77
2017-05-28T04:16:41.534Z,14.82
2017-05-28T04:17:41.542Z,14.79
2017-05-28T04:18:41.596Z,15.02
2017-05-28T04:19:41.633Z,15.27
2017-05-28T04:20:41.667Z,15.74
2017-05-28T04:21:41.693Z,16.57
2017-05-28T04:22:41.737Z,17.38
2017-05-28T04:23:41.797Z,18.16
2017-05-28T04:24:41.791Z,18.71
2017-05-28T04:25:41.852Z,18.89
2017-05-28T04:26:41.858Z,18.6
2017-05-28T04:27:41.906Z,18.57
2017-05-28T04:28:41.953Z,18.39
2017-05-28T04:29:41.993Z,18.29
2017-05-28T04:30:42.023Z,18.03
2017-05-28T04:31:42.066Z,17.81
2017-05-28T04:32:42.098Z,17.55
2017-05-28T04:33:42.118Z,17.36
2017-05-28T04:34:42.178Z,17.17
2017-05-28T04:35:42.192Z,17.06
2017-05-28T04:36:42.221Z,16.91
2017-05-28T04:37:42.296Z,16.8
2017-05-28T04:38:42.305Z,16.58
2017-05-28T04:39:42.361Z,16.44
2017-05-28T04:40:42.387Z,16.48
2017-05-28T04:41:42.405Z,16.47
2017-05-28T04:42:42.442Z,16.32
2017-05-28T04:43:42.504Z,16.37
2017-05-28T04:44:42.539Z,16.26
2017-05-28T04:45:42.574Z,16.32
2017-05-28T04:46:42.605Z,16.21
2017-05-28T04:47:42.639Z,16.3
2017-05-28T04:48:42.682Z,16.25
2017-05-28T04:49:42.709Z,16.36
2017-05-28T04:50:42.754Z,16.26
2017-05-28T04:51:42.789Z,16.37
2017-05-28T04:52:42.824Z,16.29
2017-05-28T04:53:42.852Z,16.37
2017-05-28T04:54:42.905Z,16.34
2017-05-28T04:55:42.921Z,16.36
2017-05-28T04:56:42.963Z,16.47
2017-05-28T04:57:43.306Z,16.48
2017-05-28T04:58:43.041Z,16.49
2017-05-28T04:59:43.067Z,16.55
2017-05-28T05:00:43.100Z,16.63
2017-05-28T05:01:43.124Z,16.57
2017-05-28T05:02:43.276Z,16.69
2017-05-28T05:03:43.197Z,16.69
2017-05-28T05:04:43.251Z,16.73
2017-05-28T05:05:43.296Z,16.8
2017-05-28T05:06:43.287Z,16.88
2017-05-28T05:07:43.489Z,17.05
2017-05-28T05:08:43.380Z,17.09
2017-05-28T05:09:43.425Z,17.35
2017-05-28T05:10:43.456Z,17.42
2017-05-28T05:11:43.504Z,17.5
2017-05-28T05:12:43.499Z,17.5
2017-05-28T05:13:43.575Z,17.49
2017-05-28T05:14:43.587Z,17.58
2017-05-28T05:15:43.641Z,17.77
2017-05-28T05:16:43.864Z,17.95
2017-05-28T05:17:43.707Z,18.14
2017-05-28T05:18:43.748Z,18.27
2017-05-28T05:19:43.999Z,18.19
2017-05-28T05:20:43.796Z,18.31
2017-05-28T05:21:43.856Z,18.32
2017-05-28T05:22:43.905Z,18.39
2017-05-28T05:23:43.935Z,18.47
2017-05-28T05:24:43.979Z,18.41
2017-05-28T05:25:44.008Z,18.45
2017-05-28T05:26:44.043Z,18.44
2017-05-28T05:27:44.084Z,18.44
2017-05-28T05:28:44.119Z,18.51
2017-05-28T05:29:44.131Z,18.66
2017-05-28T05:30:44.166Z,18.71
2017-05-28T05:31:44.219Z,18.89
2017-05-28T05:32:44.271Z,19.24
2017-05-28T05:33:44.304Z,19.72
2017-05-28T05:34:44.321Z,20.23
2017-05-28T05:35:44.376Z,20.61
2017-05-28T05:36:44.415Z,20.79
2017-05-28T05:37:44.445Z,21.11
2017-05-28T05:38:44.491Z,21.68
2017-05-28T05:39:44.717Z,22.57
2017-05-28T05:40:44.564Z,22.96
2017-05-28T05:41:44.628Z,23
2017-05-28T05:42:44.633Z,22.59
2017-05-28T05:43:44.682Z,22.2
2017-05-28T05:44:44.729Z,21.7
2017-05-28T05:45:44.755Z,21.48
2017-05-28T05:46:44.797Z,21.22
2017-05-28T05:47:44.847Z,20.91
2017-05-28T05:48:44.879Z,20.79
2017-05-28T05:49:44.914Z,20.57
2017-05-28T05:50:44.948Z,20.4
2017-05-28T05:51:44.990Z,20.35
2017-05-28T05:52:45.028Z,20.3
2017-05-28T05:53:45.143Z,20.4
2017-05-28T05:54:45.102Z,20.32
2017-05-28T05:55:45.124Z,20.4
2017-05-28T05:56:45.163Z,20.64
2017-05-28T05:57:45.307Z,20.78
2017-05-28T05:58:45.353Z,20.98
2017-05-28T05:59:45.297Z,21.03
2017-05-28T06:00:45.338Z,21.12
2017-05-28T06:01:45.376Z,21.22
2017-05-28T06:02:45.425Z,21.43
2017-05-28T06:03:45.530Z,21.68
2017-05-28T06:04:45.506Z,21.73
2017-05-28T06:05:45.532Z,21.78
2017-05-28T06:06:45.558Z,21.78
2017-05-28T06:07:45.593Z,21.82
2017-05-28T06:08:45.634Z,22.2
2017-05-28T06:09:45.673Z,22.73
2017-05-28T06:10:45.713Z,23.22
2017-05-28T06:11:45.753Z,23.55
2017-05-28T06:12:45.796Z,23.85
2017-05-28T06:13:45.834Z,24.4
2017-05-28T06:14:45.875Z,25.04
2017-05-28T06:15:45.914Z,26.37
2017-05-28T06:16:45.950Z,27.41
2017-05-28T06:17:45.985Z,28.7
2017-05-28T06:18:46.038Z,29.82
2017-05-28T06:19:46.083Z,30.73
2017-05-28T06:20:46.106Z,31.34
2017-05-28T06:21:46.132Z,31.77
2017-05-28T06:22:46.190Z,32.3
2017-05-28T06:23:46.234Z,32.76
2017-05-28T06:24:46.259Z,33.02
2017-05-28T06:25:46.327Z,33.5
2017-05-28T06:26:46.358Z,33.93
2017-05-28T06:27:46.402Z,34.41
2017-05-28T06:28:46.437Z,35.09
2017-05-28T06:29:46.489Z,35.3
2017-05-28T06:30:46.527Z,35.74
2017-05-28T06:31:46.579Z,35.9
2017-05-28T06:32:46.613Z,36.26
2017-05-28T06:33:46.645Z,36.52
2017-05-28T06:34:46.699Z,36.7
2017-05-28T06:35:46.743Z,36.71
2017-05-28T06:36:46.751Z,36.74
2017-05-28T06:37:46.839Z,36.95
2017-05-28T06:38:46.858Z,37.15
2017-05-28T06:39:46.917Z,37.33
2017-05-28T06:40:46.966Z,37.54
2017-05-28T06:41:46.990Z,37.51
2017-05-28T06:42:47.037Z,37.45
2017-05-28T06:43:47.110Z,37.8
2017-05-28T06:44:47.141Z,38.09
2017-05-28T06:45:47.191Z,38.1
2017-05-28T06:46:47.241Z,38.18
2017-05-28T06:47:47.258Z,38.25
2017-05-28T06:48:47.329Z,38.37
2017-05-28T06:49:47.367Z,38.17
2017-05-28T06:50:47.419Z,38.03
2017-05-28T06:51:47.464Z,38
2017-05-28T06:52:47.509Z,38.15
2017-05-28T06:53:47.562Z,38.46
2017-05-28T06:54:47.700Z,38.54
2017-05-28T06:55:47.647Z,38.62
2017-05-28T06:56:47.688Z,38.43
2017-05-28T06:57:47.735Z,38.56
2017-05-28T06:58:47.782Z,39
2017-05-28T06:59:47.839Z,39.6
2017-05-28T07:00:47.881Z,40.02
2017-05-28T07:01:47.930Z,39.94
2017-05-28T07:02:48.172Z,39.62
2017-05-28T07:03:48.028Z,39.47
2017-05-28T07:04:48.051Z,39.64
2017-05-28T07:05:48.110Z,39.86
2017-05-28T07:06:48.153Z,40.05
2017-05-28T07:07:48.208Z,40.28
2017-05-28T07:08:48.230Z,40.77
2017-05-28T07:09:48.534Z,41.15
2017-05-28T07:10:48.350Z,41.71
2017-05-28T07:11:48.393Z,41.59
2017-05-28T07:12:48.443Z,41.19
2017-05-28T07:13:48.490Z,41.01
2017-05-28T07:14:48.544Z,41.01
2017-05-28T07:15:48.581Z,40.93
2017-05-28T07:16:48.623Z,41.04
2017-05-28T07:17:48.679Z,41.13
2017-05-28T07:18:48.729Z,41.18
2017-05-28T07:19:48.761Z,40.98
2017-05-28T07:20:48.819Z,40.41
2017-05-28T07:21:48.855Z,39.93
2017-05-28T07:22:48.907Z,39.69
2017-05-28T07:23:48.942Z,39.75
2017-05-28T07:24:49.010Z,40.18
2017-05-28T07:25:49.060Z,40.38
2017-05-28T07:26:49.090Z,40.27
2017-05-28T07:27:49.150Z,40.32
2017-05-28T07:28:49.202Z,40.2
2017-05-28T07:29:49.258Z,40.45
2017-05-28T07:30:49.298Z,40.69
2017-05-28T07:31:49.355Z,40.94
2017-05-28T07:32:49.401Z,41.04
2017-05-28T07:33:49.465Z,40.96
2017-05-28T07:34:49.484Z,40.91
2017-05-28T07:35:49.535Z,40.74
2017-05-28T07:36:49.565Z,40.74
2017-05-28T07:37:49.638Z,40.96
2017-05-28T07:38:49.670Z,41.08
2017-05-28T07:39:49.732Z,41.65
2017-05-28T07:40:49.755Z,41.98
2017-05-28T07:41:49.843Z,42.07
2017-05-28T07:42:49.846Z,42.2
2017-05-28T07:43:49.926Z,42.29
2017-05-28T07:44:49.972Z,41.88
2017-05-28T07:45:50.007Z,41.6
2017-05-28T07:46:50.066Z,41.19
2017-05-28T07:47:50.122Z,41.16
2017-05-28T07:48:50.166Z,41.6
2017-05-28T07:49:50.207Z,42.33
2017-05-28T07:50:50.270Z,42.49
2017-05-28T07:51:50.504Z,42.76
2017-05-28T07:52:50.372Z,42.63
2017-05-28T07:53:50.413Z,42.07
2017-05-28T07:54:50.475Z,41.63
2017-05-28T07:55:50.524Z,41.52
2017-05-28T07:56:50.567Z,41.76
2017-05-28T07:57:50.611Z,42.01
2017-05-28T07:58:50.670Z,42.23
2017-05-28T07:59:50.707Z,42.32
2017-05-28T08:00:50.763Z,42.44
2017-05-28T08:01:50.800Z,42.74
2017-05-28T08:02:50.875Z,43.01
2017-05-28T08:03:50.895Z,42.94
2017-05-28T08:04:50.963Z,42.89
2017-05-28T08:05:50.994Z,42.95
2017-05-28T08:06:51.058Z,43.1
2017-05-28T08:07:51.096Z,43.3
2017-05-28T08:08:51.150Z,43.24
2017-05-28T08:09:51.184Z,42.92
2017-05-28T08:10:51.258Z,42.64
2017-05-28T08:11:51.276Z,42.52
2017-05-28T08:12:51.355Z,42.6
2017-05-28T08:13:51.386Z,42.26
2017-05-28T08:14:51.433Z,42.23
2017-05-28T08:15:51.499Z,42.32
2017-05-28T08:16:51.549Z,42.06
2017-05-28T08:17:51.581Z,41.69
2017-05-28T08:18:51.620Z,41.71
2017-05-28T08:19:51.685Z,41.57
2017-05-28T08:20:51.749Z,41.61
2017-05-28T08:21:51.790Z,41.73
2017-05-28T08:22:51.852Z,41.82
2017-05-28T08:23:51.876Z,41.91
2017-05-28T08:24:51.936Z,42.29
2017-05-28T08:25:51.989Z,42.76
2017-05-28T08:26:52.048Z,42.95
2017-05-28T08:27:52.076Z,42.97
2017-05-28T08:28:52.155Z,42.89
2017-05-28T08:29:52.176Z,42.92
2017-05-28T08:30:52.238Z,43.13
2017-05-28T08:31:52.272Z,43.25
2017-05-28T08:32:52.342Z,43.57
2017-05-28T08:33:52.385Z,43.92
2017-05-28T08:34:52.447Z,44.02
2017-05-28T08:35:52.487Z,43.97
2017-05-28T08:36:52.547Z,43.66
2017-05-28T08:37:52.592Z,43.49
2017-05-28T08:38:52.646Z,43.32
2017-05-28T08:39:52.691Z,43.36
2017-05-28T08:40:52.745Z,43.32
2017-05-28T08:41:52.803Z,43.17
2017-05-28T08:42:52.851Z,43.08
2017-05-28T08:43:52.887Z,43.2
2017-05-28T08:44:52.956Z,43.33
2017-05-28T08:45:52.985Z,43.32
2017-05-28T08:46:53.067Z,43.58
2017-05-28T08:47:53.092Z,43.78
2017-05-28T08:48:53.152Z,44
2017-05-28T08:49:53.242Z,43.88
2017-05-28T08:50:53.272Z,43.66
2017-05-28T08:51:53.321Z,42.98
2017-05-28T08:52:53.366Z,41.91
2017-05-28T08:53:53.399Z,41.85
2017-05-28T08:54:53.473Z,41.66
2017-05-28T08:55:53.519Z,41.47
2017-05-28T08:56:53.571Z,41.75
2017-05-28T08:57:53.616Z,41.99
2017-05-28T08:58:53.656Z,42.44
2017-05-28T08:59:53.717Z,42.48
2017-05-28T09:00:53.781Z,42.74
2017-05-28T09:01:53.820Z,43.13
2017-05-28T09:02:53.869Z,42.74
2017-05-28T09:03:53.904Z,42.57
2017-05-28T09:04:53.956Z,42.9
2017-05-28T09:05:54.030Z,43.28
2017-05-28T09:06:54.128Z,43.2
2017-05-28T09:07:54.122Z,43.62
2017-05-28T09:08:54.184Z,44.15
2017-05-28T09:09:54.229Z,44.4
2017-05-28T09:10:54.282Z,44.58
2017-05-28T09:11:54.337Z,44.64
2017-05-28T09:12:54.381Z,44.42
2017-05-28T09:13:54.438Z,44.72
2017-05-28T09:14:54.474Z,45.1
2017-05-28T09:15:54.546Z,45.14
2017-05-28T09:16:54.574Z,44.76
2017-05-28T09:17:54.648Z,44.26
2017-05-28T09:18:54.720Z,43.69
2017-05-28T09:19:54.748Z,42.4
2017-05-28T09:20:54.803Z,41.04
2017-05-28T09:21:54.838Z,40.05
2017-05-28T09:22:54.894Z,39.49
2017-05-28T09:23:54.962Z,39.27
2017-05-28T09:24:54.993Z,39.46
2017-05-28T09:25:55.061Z,40.05
2017-05-28T09:26:55.101Z,41.04
2017-05-28T09:27:55.175Z,41.91
2017-05-28T09:28:55.222Z,42.74
2017-05-28T09:29:55.272Z,43.15
2017-05-28T09:30:55.264Z,43.64
2017-05-28T09:31:55.360Z,44.15
2017-05-28T09:32:55.397Z,44.6
2017-05-28T09:33:55.473Z,44.71
2017-05-28T09:34:55.511Z,44.92
2017-05-28T09:35:55.570Z,45.43
2017-05-28T09:36:55.604Z,46.03
2017-05-28T09:37:55.658Z,46.01
2017-05-28T09:38:55.733Z,45.71
2017-05-28T09:39:55.778Z,45.44
2017-05-28T09:40:55.833Z,45.37
2017-05-28T09:41:55.885Z,45.43
2017-05-28T09:42:55.947Z,45.41
2017-05-28T09:43:55.977Z,45.51
2017-05-28T09:44:56.049Z,45.77
2017-05-28T09:45:56.067Z,46.05
2017-05-28T09:46:56.150Z,46.28
2017-05-28T09:47:56.181Z,46.57
2017-05-28T09:48:56.254Z,47.11
2017-05-28T09:49:56.305Z,47.77
2017-05-28T09:50:56.353Z,47.87
2017-05-28T09:51:56.416Z,47.87
2017-05-28T09:52:56.489Z,47.84
2017-05-28T09:53:56.522Z,47.61
2017-05-28T09:54:56.582Z,47.02
2017-05-28T09:55:56.603Z,46.29
2017-05-28T09:56:56.738Z,45.98
2017-05-28T09:57:56.814Z,46.04
2017-05-28T09:58:56.806Z,46.28
2017-05-28T09:59:56.852Z,46.35
2017-05-28T10:00:56.891Z,46.26
2017-05-28T10:01:56.972Z,46.05
2017-05-28T10:02:57.033Z,45.78
2017-05-28T10:03:57.070Z,45.63
2017-05-28T10:04:57.129Z,45.78
2017-05-28T10:05:57.189Z,46.2
2017-05-28T10:06:57.243Z,46.83
2017-05-28T10:07:57.296Z,47.3
2017-05-28T10:08:57.358Z,47.65
2017-05-28T10:09:57.369Z,48.02
2017-05-28T10:10:57.453Z,48.06
2017-05-28T10:11:57.489Z,48.14
2017-05-28T10:12:57.576Z,47.69
2017-05-28T10:13:57.624Z,46.43
2017-05-28T10:14:57.682Z,45.96
2017-05-28T10:15:57.733Z,46.18
2017-05-28T10:16:57.777Z,46
2017-05-28T10:17:57.831Z,45.98
2017-05-28T10:18:57.892Z,45.85
2017-05-28T10:19:57.926Z,46.04
2017-05-28T10:20:57.982Z,46.29
2017-05-28T10:21:58.046Z,46.54
2017-05-28T10:22:58.079Z,46.4
2017-05-28T10:23:58.131Z,46.05
2017-05-28T10:24:58.205Z,45.81
2017-05-28T10:25:58.237Z,45.85
2017-05-28T10:26:58.307Z,45.66
2017-05-28T10:27:58.354Z,45.13
2017-05-28T10:28:58.407Z,44.45
2017-05-28T10:29:58.450Z,43.44
2017-05-28T10:30:58.506Z,42.83
2017-05-28T10:31:58.559Z,42.26
2017-05-28T10:32:58.606Z,41.87
2017-05-28T10:33:58.658Z,41.49
2017-05-28T10:34:58.695Z,41
2017-05-28T10:35:58.758Z,41.03
2017-05-28T10:36:58.800Z,41.26
2017-05-28T10:37:58.847Z,41.6
2017-05-28T10:38:58.902Z,41.71
2017-05-28T10:39:58.949Z,41.71
2017-05-28T10:40:58.980Z,41.4
2017-05-28T10:41:59.044Z,41.32
2017-05-28T10:42:59.099Z,41.63
2017-05-28T10:43:59.144Z,42.15
2017-05-28T10:44:59.187Z,42.76
2017-05-28T10:45:59.246Z,43.46
2017-05-28T10:46:59.270Z,43.97
2017-05-28T10:47:59.326Z,44.61
2017-05-28T10:48:59.378Z,44.99
2017-05-28T10:49:59.418Z,45.1
2017-05-28T10:50:59.460Z,44.91
2017-05-28T10:51:59.514Z,44.24
2017-05-28T10:52:59.619Z,43.62
2017-05-28T10:53:59.597Z,42.82
2017-05-28T10:54:59.657Z,41.66
2017-05-28T10:55:59.680Z,40.66
2017-05-28T10:56:59.750Z,39.69
2017-05-28T10:57:59.805Z,38.89
2017-05-28T10:58:59.847Z,38.39
2017-05-28T10:59:59.887Z,37.91
2017-05-28T11:00:59.912Z,37.24
2017-05-28T11:01:59.964Z,36.81
2017-05-28T11:03:00.042Z,36.7
2017-05-28T11:04:00.073Z,37.08
2017-05-28T11:05:00.114Z,37.39
2017-05-28T11:06:00.157Z,37.93
2017-05-28T11:07:00.200Z,38.18
2017-05-28T11:08:00.248Z,38.4
2017-05-28T11:09:00.280Z,37.83
2017-05-28T11:10:00.336Z,36.97
2017-05-28T11:11:00.360Z,36.51
2017-05-28T11:12:00.409Z,35.83
2017-05-28T11:13:00.477Z,35.61
2017-05-28T11:14:00.509Z,35.71
2017-05-28T11:15:00.570Z,36.19
2017-05-28T11:16:00.595Z,36.59
2017-05-28T11:17:00.650Z,36.89
2017-05-28T11:18:00.694Z,37.04
2017-05-28T11:19:00.740Z,37.17
2017-05-28T11:20:00.796Z,36.74
2017-05-28T11:21:00.836Z,36.4
2017-05-28T11:22:00.878Z,35.76
2017-05-28T11:23:00.912Z,35.38
2017-05-28T11:24:00.949Z,35.39
2017-05-28T11:25:01.007Z,35.94
2017-05-28T11:26:01.032Z,36.63
2017-05-28T11:27:01.089Z,37.51
2017-05-28T11:28:01.139Z,38.17
2017-05-28T11:29:01.162Z,38.02
2017-05-28T11:30:01.229Z,37.09
2017-05-28T11:31:01.250Z,35.96
2017-05-28T11:32:01.301Z,35.11
2017-05-28T11:33:01.359Z,34.4
2017-05-28T11:34:01.385Z,33.97
2017-05-28T11:35:01.442Z,33.71
2017-05-28T11:36:01.485Z,33.43
2017-05-28T11:37:01.502Z,33.2
2017-05-28T11:38:01.577Z,33.05
2017-05-28T11:39:01.615Z,32.83
2017-05-28T11:40:01.657Z,32.56
2017-05-28T11:41:01.719Z,32.39
2017-05-28T11:42:01.746Z,32.24
2017-05-28T11:43:01.787Z,32.17
2017-05-28T11:44:01.829Z,32.15
2017-05-28T11:45:01.881Z,32.16
2017-05-28T11:46:01.895Z,32.05
2017-05-28T11:47:01.944Z,32.01
2017-05-28T11:48:01.988Z,32.01
2017-05-28T11:49:02.047Z,31.98
2017-05-28T11:50:02.086Z,31.94
2017-05-28T11:51:02.128Z,31.88
2017-05-28T11:52:02.165Z,31.87
2017-05-28T11:53:02.220Z,31.78
2017-05-28T11:54:02.262Z,31.78
2017-05-28T11:55:02.275Z,31.59
2017-05-28T11:56:02.351Z,31.63
2017-05-28T11:57:02.390Z,31.81
2017-05-28T11:58:02.429Z,31.77
2017-05-28T11:59:02.482Z,31.71
2017-05-28T12:00:02.522Z,31.74
2017-05-28T12:01:02.562Z,31.86
2017-05-28T12:02:02.610Z,31.88
2017-05-28T12:03:02.650Z,31.9
2017-05-28T12:04:02.675Z,31.97
2017-05-28T12:05:02.735Z,32.03
2017-05-28T12:06:02.786Z,31.93
2017-05-28T12:07:02.872Z,31.88
2017-05-28T12:08:02.855Z,31.78
2017-05-28T12:09:02.908Z,31.77
2017-05-28T12:10:02.927Z,31.88
2017-05-28T12:11:03.010Z,31.95
2017-05-28T12:12:03.042Z,32.03
2017-05-28T12:13:03.078Z,32.28
2017-05-28T12:14:03.129Z,32.31
2017-05-28T12:15:03.164Z,32.46
2017-05-28T12:16:03.210Z,32.35
2017-05-28T12:17:03.253Z,32.37
2017-05-28T12:18:03.277Z,32.28
2017-05-28T12:19:03.330Z,32.25
2017-05-28T12:20:03.381Z,32.13
2017-05-28T12:21:03.410Z,32.01
2017-05-28T12:22:03.466Z,31.98
2017-05-28T12:23:03.476Z,32.12
2017-05-28T12:24:03.537Z,32.2
2017-05-28T12:25:03.585Z,32.25
2017-05-28T12:26:03.644Z,32.35
2017-05-28T12:27:03.695Z,32.43
2017-05-28T12:28:03.712Z,32.53
2017-05-28T12:29:03.763Z,32.62
2017-05-28T12:30:03.796Z,32.68
2017-05-28T12:31:03.850Z,32.65
2017-05-28T12:32:03.871Z,32.69
2017-05-28T12:33:03.943Z,32.62
2017-05-28T12:34:03.990Z,32.57
2017-05-28T12:35:04.030Z,32.5
2017-05-28T12:36:04.070Z,32.39
2017-05-28T12:37:04.104Z,32.43
2017-05-28T12:38:04.152Z,32.37
2017-05-28T12:39:04.185Z,32.39
2017-05-28T12:40:04.224Z,32.45
2017-05-28T12:41:04.285Z,32.59
2017-05-28T12:42:04.332Z,32.57
2017-05-28T12:43:04.371Z,32.67
2017-05-28T12:44:04.415Z,32.61
2017-05-28T12:45:04.603Z,32.74
2017-05-28T12:46:04.494Z,32.76
2017-05-28T12:47:04.544Z,32.76
2017-05-28T12:48:04.583Z,32.72
2017-05-28T12:49:04.604Z,32.74
2017-05-28T12:50:04.676Z,32.69
2017-05-28T12:51:04.703Z,32.64
2017-05-28T12:52:04.751Z,32.54
2017-05-28T12:53:04.781Z,32.31
2017-05-28T12:54:04.839Z,32.23
2017-05-28T12:55:04.877Z,31.98
2017-05-28T12:56:04.929Z,31.93
2017-05-28T12:57:04.972Z,31.9